createdAt,value
2023-04-15T00:00:59.785Z,4.57
2023-04-15T00:03:27.070Z,4.53
2023-04-15T00:05:54.236Z,4.53
2023-04-15T00:08:20.887Z,4.58
2023-04-15T00:10:48.038Z,4.54
2023-04-15T00:13:15.450Z,4.49
2023-04-15T00:15:42.772Z,4.45
2023-04-15T00:18:09.787Z,4.43
2023-04-15T00:20:37.226Z,4.50
2023-04-15T00:23:04.429Z,4.50
2023-04-15T00:25:31.554Z,4.48
2023-04-15T00:27:58.418Z,4.44
2023-04-15T00:30:25.781Z,4.40
2023-04-15T00:32:52.845Z,4.39
2023-04-15T00:35:19.619Z,4.38
2023-04-15T00:37:46.453Z,4.40
2023-04-15T00:40:14.030Z,4.36
2023-04-15T00:42:41.179Z,4.35
2023-04-15T00:45:08.930Z,4.44
2023-04-15T00:47:37.737Z,4.35
2023-04-15T00:50:05.135Z,4.35
2023-04-15T00:52:32.106Z,4.31
2023-04-15T00:54:59.565Z,4.27
2023-04-15T00:57:27.619Z,4.32
2023-04-15T00:59:56.124Z,4.24
2023-04-15T01:02:24.075Z,4.29
2023-04-15T01:04:51.352Z,4.29
2023-04-15T01:07:18.275Z,4.33
2023-04-15T01:09:45.712Z,4.36
2023-04-15T01:12:14.317Z,4.41
2023-04-15T01:14:41.247Z,4.35
2023-04-15T01:17:07.911Z,4.29
2023-04-15T01:19:36.832Z,4.33
2023-04-15T01:22:05.339Z,4.29
2023-04-15T01:24:34.039Z,4.34
2023-04-15T01:27:00.924Z,4.28
2023-04-15T01:29:28.024Z,4.32
2023-04-15T01:31:56.079Z,4.34
2023-04-15T01:34:23.216Z,4.32
2023-04-15T01:36:49.893Z,4.36
2023-04-15T01:39:16.555Z,4.31
2023-04-15T01:41:43.262Z,4.31
2023-04-15T01:44:10.138Z,4.32
2023-04-15T01:46:37.156Z,4.34
2023-04-15T01:49:03.836Z,4.34
2023-04-15T01:51:30.438Z,4.38
2023-04-15T01:53:57.115Z,4.46
2023-04-15T01:56:26.912Z,4.46
2023-04-15T01:58:53.670Z,4.58
2023-04-15T02:01:20.980Z,4.58
2023-04-15T02:03:48.295Z,4.61
2023-04-15T02:06:15.185Z,4.57
2023-04-15T02:08:41.794Z,4.60
2023-04-15T02:11:08.541Z,4.56
2023-04-15T02:13:35.236Z,4.62
2023-04-15T02:16:01.975Z,4.58
2023-04-15T02:18:28.684Z,4.50
2023-04-15T02:20:57.367Z,4.48
2023-04-15T02:23:24.719Z,4.48
2023-04-15T02:25:53.503Z,4.38
2023-04-15T02:28:21.846Z,4.37
2023-04-15T02:30:52.757Z,4.31
2023-04-15T02:33:21.781Z,4.30
2023-04-15T02:35:48.480Z,4.36
2023-04-15T02:38:16.885Z,4.30
2023-04-15T02:40:43.474Z,4.31
2023-04-15T02:43:10.091Z,4.30
2023-04-15T02:45:37.915Z,4.40
2023-04-15T02:48:06.709Z,4.38
2023-04-15T02:50:33.631Z,4.30
2023-04-15T02:53:01.681Z,4.24
2023-04-15T02:55:29.014Z,4.25
2023-04-15T02:57:55.972Z,4.24
2023-04-15T03:00:25.327Z,4.22
2023-04-15T03:02:56.448Z,4.26
2023-04-15T03:05:25.436Z,4.32
2023-04-15T03:07:52.851Z,4.36
2023-04-15T03:10:20.127Z,4.40
2023-04-15T03:12:47.144Z,4.42
2023-04-15T03:15:13.813Z,4.45
2023-04-15T03:17:40.795Z,4.50
2023-04-15T03:20:07.930Z,4.55
2023-04-15T03:22:34.584Z,4.62
2023-04-15T03:25:01.765Z,4.70
2023-04-15T03:27:28.359Z,4.71
2023-04-15T03:29:55.024Z,4.76
2023-04-15T03:32:21.653Z,4.78
2023-04-15T03:34:48.316Z,4.79
2023-04-15T03:37:14.907Z,4.79
2023-04-15T03:39:41.811Z,4.77
2023-04-15T03:42:08.555Z,4.78
2023-04-15T03:44:35.204Z,4.79
2023-04-15T03:47:02.036Z,4.72
2023-04-15T03:49:28.685Z,4.65
2023-04-15T03:51:55.556Z,4.64
2023-04-15T03:54:22.184Z,4.60
2023-04-15T03:56:48.784Z,4.56
2023-04-15T03:59:15.583Z,4.61
2023-04-15T04:01:42.293Z,4.54
2023-04-15T04:04:09.225Z,4.43
2023-04-15T04:06:36.120Z,4.38
2023-04-15T04:09:02.991Z,4.33
2023-04-15T04:11:29.821Z,4.30
2023-04-15T04:13:56.600Z,4.32
2023-04-15T04:16:23.438Z,4.27
2023-04-15T04:18:50.333Z,4.23
2023-04-15T04:21:17.320Z,4.22
2023-04-15T04:23:43.987Z,4.26
2023-04-15T04:26:10.594Z,4.26
2023-04-15T04:28:37.225Z,4.27
2023-04-15T04:31:03.822Z,4.33
2023-04-15T04:33:30.492Z,4.24
2023-04-15T04:35:57.115Z,4.21
2023-04-15T04:38:23.727Z,4.23
2023-04-15T04:40:50.328Z,4.21
2023-04-15T04:43:16.958Z,4.16
2023-04-15T04:45:43.588Z,4.11
2023-04-15T04:48:10.615Z,4.06
2023-04-15T04:50:37.374Z,4.04
2023-04-15T04:53:04.062Z,4.04
2023-04-15T04:55:31.988Z,4.06
2023-04-15T04:57:58.638Z,3.97
2023-04-15T05:00:25.482Z,3.94
2023-04-15T05:02:52.320Z,3.99
2023-04-15T05:05:19.186Z,3.93
2023-04-15T05:07:46.085Z,3.90
2023-04-15T05:10:13.059Z,3.88
2023-04-15T05:12:39.718Z,3.87
2023-04-15T05:15:07.119Z,3.84
2023-04-15T05:17:35.359Z,3.79
2023-04-15T05:20:03.460Z,3.77
2023-04-15T05:22:30.189Z,3.72
2023-04-15T05:24:56.786Z,3.73
2023-04-15T05:27:24.126Z,3.75
2023-04-15T05:29:50.724Z,3.75
2023-04-15T05:32:17.562Z,3.75
2023-04-15T05:34:44.241Z,3.78
2023-04-15T05:37:10.983Z,3.78
2023-04-15T05:39:37.591Z,3.72
2023-04-15T05:42:06.069Z,3.75
2023-04-15T05:44:33.082Z,3.77
2023-04-15T05:46:59.845Z,3.77
2023-04-15T05:49:26.467Z,3.77
2023-04-15T05:51:53.104Z,3.83
2023-04-15T05:54:20.410Z,3.83
2023-04-15T05:56:47.065Z,3.82
2023-04-15T05:59:13.692Z,3.79
2023-04-15T06:01:40.404Z,3.86
2023-04-15T06:04:07.161Z,3.88
2023-04-15T06:06:34.680Z,3.90
2023-04-15T06:09:01.460Z,3.92
2023-04-15T06:11:28.315Z,4.00
2023-04-15T06:13:54.914Z,4.00
2023-04-15T06:16:22.028Z,4.02
2023-04-15T06:18:49.111Z,4.01
2023-04-15T06:21:16.424Z,4.06
2023-04-15T06:23:43.101Z,4.20
2023-04-15T06:26:09.680Z,4.29
2023-04-15T06:28:36.407Z,4.39
2023-04-15T06:31:03.471Z,4.48
2023-04-15T06:33:30.059Z,4.52
2023-04-15T06:35:56.635Z,4.67
2023-04-15T06:38:23.255Z,4.68
2023-04-15T06:40:49.974Z,4.78
2023-04-15T06:43:16.567Z,4.68
2023-04-15T06:45:43.213Z,4.71
2023-04-15T06:48:09.911Z,4.66
2023-04-15T06:50:36.543Z,4.82
2023-04-15T06:53:03.190Z,4.93
2023-04-15T06:55:29.909Z,5.04
2023-04-15T06:57:56.551Z,5.16
2023-04-15T07:00:23.367Z,5.19
2023-04-15T07:02:50.062Z,5.28
2023-04-15T07:05:16.810Z,5.34
2023-04-15T07:07:43.567Z,5.43
2023-04-15T07:10:12.033Z,5.45
2023-04-15T07:12:38.801Z,5.49
2023-04-15T07:15:06.749Z,5.60
2023-04-15T07:17:33.459Z,5.75
2023-04-15T07:20:00.231Z,5.83
2023-04-15T07:22:26.884Z,5.98
2023-04-15T07:24:53.461Z,5.99
2023-04-15T07:27:20.043Z,6.06
2023-04-15T07:29:46.777Z,6.15
2023-04-15T07:32:13.435Z,6.25
2023-04-15T07:34:40.072Z,6.37
2023-04-15T07:37:06.675Z,6.42
2023-04-15T07:39:33.280Z,6.43
2023-04-15T07:41:59.943Z,6.50
2023-04-15T07:44:27.397Z,6.60
2023-04-15T07:46:54.140Z,6.56
2023-04-15T07:49:21.502Z,6.69
2023-04-15T07:51:49.106Z,6.67
2023-04-15T07:54:16.326Z,6.80
2023-04-15T07:56:43.085Z,6.84
2023-04-15T07:59:10.438Z,6.78
2023-04-15T08:01:37.765Z,6.63
2023-04-15T08:04:04.700Z,6.65
2023-04-15T08:06:31.391Z,6.63
2023-04-15T08:08:58.141Z,6.64
2023-04-15T08:11:24.999Z,6.38
2023-04-15T08:13:52.542Z,6.51
2023-04-15T08:16:27.927Z,6.45
2023-04-15T08:18:56.497Z,6.52
2023-04-15T08:21:23.790Z,6.57
2023-04-15T08:23:51.995Z,6.69
2023-04-15T08:26:20.013Z,6.74
2023-04-15T08:28:47.463Z,6.92
2023-04-15T08:31:18.196Z,6.76
2023-04-15T08:33:45.404Z,6.82
2023-04-15T08:36:12.233Z,7.02
2023-04-15T08:38:38.852Z,7.21
2023-04-15T08:41:13.468Z,7.36
2023-04-15T08:44:01.394Z,7.23
2023-04-15T08:46:28.268Z,7.26
2023-04-15T08:48:57.649Z,7.51
2023-04-15T08:51:25.127Z,7.43
2023-04-15T08:53:52.688Z,7.47
2023-04-15T08:56:20.317Z,7.57
2023-04-15T08:58:48.199Z,7.73
2023-04-15T09:01:14.902Z,7.95
2023-04-15T09:03:42.055Z,8.14
2023-04-15T09:06:08.863Z,8.29
2023-04-15T09:08:35.955Z,8.43
2023-04-15T09:11:03.419Z,8.56
2023-04-15T09:13:30.961Z,8.66
2023-04-15T09:15:58.554Z,8.61
2023-04-15T09:18:30.105Z,8.57
2023-04-15T09:20:57.631Z,8.34
2023-04-15T09:23:24.402Z,8.49
2023-04-15T09:25:51.116Z,8.42
2023-04-15T09:28:25.735Z,8.36
2023-04-15T09:30:56.810Z,8.53
2023-04-15T09:33:24.477Z,8.51
2023-04-15T09:36:02.599Z,8.52
2023-04-15T09:38:29.494Z,8.61
2023-04-15T09:40:56.530Z,8.61
2023-04-15T09:43:23.314Z,8.73
2023-04-15T09:45:52.199Z,8.60
2023-04-15T09:48:31.179Z,8.61
2023-04-15T09:51:00.550Z,8.70
2023-04-15T09:53:28.441Z,8.84
2023-04-15T09:55:58.943Z,9.06
2023-04-15T09:58:30.404Z,8.96
2023-04-15T10:00:58.790Z,9.19
2023-04-15T10:03:27.816Z,9.22
2023-04-15T10:05:57.192Z,9.24
2023-04-15T10:08:27.547Z,9.32
2023-04-15T10:10:54.497Z,9.33
2023-04-15T10:13:24.100Z,9.32
2023-04-15T10:15:57.748Z,9.31
2023-04-15T10:18:27.089Z,9.25
2023-04-15T10:20:54.624Z,9.09
2023-04-15T10:23:23.460Z,9.21
2023-04-15T10:25:52.625Z,9.21
2023-04-15T10:28:20.310Z,9.15
2023-04-15T10:30:48.078Z,9.06
2023-04-15T10:33:17.181Z,9.23
2023-04-15T10:35:46.333Z,9.40
2023-04-15T10:38:35.766Z,9.64
2023-04-15T10:41:23.320Z,9.54
2023-04-15T10:44:01.192Z,9.51
2023-04-15T10:46:46.034Z,9.67
2023-04-15T10:49:17.091Z,9.85
2023-04-15T10:51:46.141Z,9.86
2023-04-15T10:54:39.458Z,9.96
2023-04-15T10:57:06.565Z,9.94
2023-04-15T10:59:37.062Z,10.02
2023-04-15T11:02:06.050Z,10.16
2023-04-15T11:04:55.558Z,10.21
2023-04-15T11:07:39.464Z,10.43
2023-04-15T11:10:18.151Z,10.68
2023-04-15T11:12:45.956Z,10.47
2023-04-15T11:15:31.965Z,10.45
2023-04-15T11:18:09.773Z,10.54
2023-04-15T11:20:37.493Z,10.72
2023-04-15T11:23:14.572Z,10.81
2023-04-15T11:25:43.869Z,10.76
2023-04-15T11:28:12.115Z,10.70
2023-04-15T11:30:40.066Z,10.81
2023-04-15T11:33:12.437Z,10.71
2023-04-15T11:35:41.523Z,10.83
2023-04-15T11:38:15.652Z,10.74
2023-04-15T11:40:46.168Z,10.69
2023-04-15T11:43:16.197Z,10.77
2023-04-15T11:45:56.453Z,10.76
2023-04-15T11:48:31.235Z,10.77
2023-04-15T11:51:03.240Z,10.67
2023-04-15T11:53:37.305Z,10.95
2023-04-15T11:56:04.237Z,11.31
2023-04-15T11:58:31.768Z,11.30
2023-04-15T12:01:00.293Z,11.40
2023-04-15T12:03:28.538Z,11.27
2023-04-15T12:06:24.539Z,10.96
2023-04-15T12:09:13.919Z,10.88
2023-04-15T12:11:45.043Z,10.98
2023-04-15T12:14:16.482Z,11.06
2023-04-15T12:16:49.559Z,11.23
2023-04-15T12:19:22.776Z,11.25
2023-04-15T12:21:49.668Z,11.11
2023-04-15T12:24:21.809Z,11.02
2023-04-15T12:26:52.657Z,11.06
2023-04-15T12:29:21.174Z,11.18
2023-04-15T12:31:53.422Z,10.94
2023-04-15T12:34:34.183Z,11.18
2023-04-15T12:37:03.039Z,11.05
2023-04-15T12:39:32.609Z,11.08
2023-04-15T12:42:00.519Z,11.10
2023-04-15T12:44:28.096Z,11.30
2023-04-15T12:46:55.018Z,11.42
2023-04-15T12:49:22.783Z,11.49
2023-04-15T12:51:51.101Z,11.51
2023-04-15T12:54:18.553Z,11.58
2023-04-15T12:56:49.869Z,11.63
2023-04-15T12:59:18.601Z,11.71
2023-04-15T13:01:48.862Z,11.54
2023-04-15T13:04:16.516Z,11.70
2023-04-15T13:06:43.809Z,11.80
2023-04-15T13:09:10.798Z,11.86
2023-04-15T13:11:37.497Z,11.80
2023-04-15T13:14:06.133Z,11.82
2023-04-15T13:16:33.938Z,11.82
2023-04-15T13:19:01.819Z,11.74
2023-04-15T13:21:28.732Z,11.92
2023-04-15T13:23:56.118Z,12.04
2023-04-15T13:26:22.778Z,12.07
2023-04-15T13:28:49.466Z,12.21
2023-04-15T13:31:16.218Z,12.50
2023-04-15T13:33:42.866Z,12.59
2023-04-15T13:36:09.558Z,12.66
2023-04-15T13:38:36.515Z,12.80
2023-04-15T13:41:03.151Z,12.78
2023-04-15T13:43:29.791Z,12.79
2023-04-15T13:45:56.627Z,12.83
2023-04-15T13:48:23.384Z,12.83
2023-04-15T13:50:50.377Z,12.84
2023-04-15T13:53:17.062Z,12.81
2023-04-15T13:55:43.950Z,12.81
2023-04-15T13:58:11.449Z,12.88
2023-04-15T14:00:38.141Z,12.96
2023-04-15T14:03:05.171Z,13.05
2023-04-15T14:05:32.937Z,12.95
2023-04-15T14:08:00.072Z,12.94
2023-04-15T14:10:26.738Z,13.03
2023-04-15T14:12:53.335Z,13.18
2023-04-15T14:15:20.000Z,13.17
2023-04-15T14:17:46.726Z,13.16
2023-04-15T14:20:15.529Z,13.19
2023-04-15T14:22:43.517Z,13.15
2023-04-15T14:25:13.174Z,13.24
2023-04-15T14:27:44.059Z,13.29
2023-04-15T14:30:11.112Z,13.29
2023-04-15T14:32:37.828Z,13.31
2023-04-15T14:35:04.887Z,13.26
2023-04-15T14:37:31.545Z,13.45
2023-04-15T14:39:58.284Z,13.57
2023-04-15T14:42:25.641Z,13.50
2023-04-15T14:44:52.285Z,13.30
2023-04-15T14:47:18.941Z,13.31
2023-04-15T14:49:45.876Z,13.26
2023-04-15T14:52:12.643Z,13.18
2023-04-15T14:54:39.255Z,12.99
2023-04-15T14:57:06.013Z,12.72
2023-04-15T14:59:32.604Z,12.68
2023-04-15T15:01:59.391Z,12.57
2023-04-15T15:04:26.349Z,12.50
2023-04-15T15:06:53.047Z,12.41
2023-04-15T15:09:19.835Z,12.42
2023-04-15T15:11:46.555Z,12.40
2023-04-15T15:14:13.212Z,12.42
2023-04-15T15:16:39.874Z,12.35
2023-04-15T15:19:06.548Z,12.33
2023-04-15T15:21:33.664Z,12.34
2023-04-15T15:24:00.574Z,12.37
2023-04-15T15:26:28.230Z,12.42
2023-04-15T15:28:54.979Z,12.41
2023-04-15T15:31:21.611Z,12.44
2023-04-15T15:33:48.305Z,12.42
2023-04-15T15:36:14.955Z,12.40
2023-04-15T15:38:41.909Z,12.38
2023-04-15T15:41:08.521Z,12.45
2023-04-15T15:43:35.260Z,12.45
2023-04-15T15:46:02.353Z,12.51
2023-04-15T15:48:29.033Z,12.57
2023-04-15T15:50:55.783Z,12.62
2023-04-15T15:53:24.685Z,12.82
2023-04-15T15:55:53.781Z,12.98
2023-04-15T15:58:20.922Z,13.03
2023-04-15T16:00:47.956Z,13.07
2023-04-15T16:03:16.115Z,13.23
2023-04-15T16:05:42.889Z,13.16
2023-04-15T16:08:09.600Z,13.13
2023-04-15T16:10:36.213Z,13.00
2023-04-15T16:13:03.020Z,12.88
2023-04-15T16:15:29.718Z,12.80
2023-04-15T16:17:56.449Z,12.79
2023-04-15T16:20:23.457Z,12.79
2023-04-15T16:22:50.113Z,12.80
2023-04-15T16:25:16.802Z,12.70
2023-04-15T16:27:58.868Z,12.65
2023-04-15T16:30:28.953Z,12.60
2023-04-15T16:32:56.622Z,12.58
2023-04-15T16:35:23.253Z,12.57
2023-04-15T16:37:49.850Z,12.59
2023-04-15T16:40:16.449Z,12.61
2023-04-15T16:42:43.788Z,12.63
2023-04-15T16:45:10.947Z,12.69
2023-04-15T16:47:37.792Z,12.79
2023-04-15T16:50:04.756Z,12.75
2023-04-15T16:52:31.415Z,12.72
2023-04-15T16:54:57.994Z,12.66
2023-04-15T16:57:24.738Z,12.66
2023-04-15T17:00:11.744Z,12.56
2023-04-15T17:02:38.595Z,12.61
2023-04-15T17:05:05.765Z,12.61
2023-04-15T17:07:32.355Z,12.54
2023-04-15T17:09:58.941Z,12.52
2023-04-15T17:12:25.675Z,12.46
2023-04-15T17:14:52.287Z,12.48
2023-04-15T17:17:20.716Z,12.44
2023-04-15T17:19:47.376Z,12.45
2023-04-15T17:22:14.121Z,12.44
2023-04-15T17:24:40.742Z,12.33
2023-04-15T17:27:07.389Z,12.37
2023-04-15T17:29:34.119Z,12.23
2023-04-15T17:32:01.264Z,12.20
2023-04-15T17:34:50.270Z,12.14
2023-04-15T17:37:17.438Z,12.08
2023-04-15T17:39:45.237Z,12.03
2023-04-15T17:42:15.358Z,11.97
2023-04-15T17:44:41.952Z,11.96
2023-04-15T17:47:08.553Z,11.88
2023-04-15T17:49:37.723Z,11.85
2023-04-15T17:52:04.805Z,11.83
2023-04-15T17:54:31.457Z,11.77
2023-04-15T17:56:59.448Z,11.68
2023-04-15T17:59:26.656Z,11.60
2023-04-15T18:01:53.400Z,11.55
2023-04-15T18:04:21.456Z,11.49
2023-04-15T18:06:49.373Z,11.37
2023-04-15T18:09:16.099Z,11.26
2023-04-15T18:11:45.141Z,11.24
2023-04-15T18:14:12.607Z,11.21
2023-04-15T18:16:42.768Z,11.14
2023-04-15T18:19:10.152Z,11.09
2023-04-15T18:21:36.822Z,11.07
2023-04-15T18:24:03.825Z,11.03
2023-04-15T18:26:30.789Z,11.03
2023-04-15T18:28:57.425Z,10.97
2023-04-15T18:31:24.056Z,10.88
2023-04-15T18:33:50.760Z,10.81
2023-04-15T18:36:17.484Z,10.78
2023-04-15T18:38:46.023Z,10.75
2023-04-15T18:41:13.484Z,10.70
2023-04-15T18:43:40.531Z,10.61
2023-04-15T18:46:11.805Z,10.53
2023-04-15T18:48:38.559Z,10.42
2023-04-15T18:51:05.236Z,10.32
2023-04-15T18:53:32.653Z,10.20
2023-04-15T18:56:01.726Z,9.95
2023-04-15T18:58:29.049Z,9.80
2023-04-15T19:01:15.753Z,9.61
2023-04-15T19:03:42.518Z,9.40
2023-04-15T19:06:09.599Z,9.25
2023-04-15T19:08:36.261Z,9.13
2023-04-15T19:11:03.178Z,9.01
2023-04-15T19:13:29.892Z,8.91
2023-04-15T19:15:57.034Z,8.88
2023-04-15T19:18:23.778Z,8.80
2023-04-15T19:20:52.206Z,8.63
2023-04-15T19:23:18.916Z,8.62
2023-04-15T19:25:45.845Z,8.48
2023-04-15T19:28:12.510Z,8.37
2023-04-15T19:30:39.315Z,8.30
2023-04-15T19:33:06.127Z,8.30
2023-04-15T19:35:33.177Z,8.32
2023-04-15T19:38:00.427Z,8.26
2023-04-15T19:40:27.132Z,8.16
2023-04-15T19:42:53.832Z,8.06
2023-04-15T19:45:20.658Z,7.89
2023-04-15T19:47:47.384Z,7.90
2023-04-15T19:50:15.702Z,7.83
2023-04-15T19:52:42.491Z,7.75
2023-04-15T19:55:09.171Z,7.75
2023-04-15T19:57:36.024Z,7.66
2023-04-15T20:00:02.962Z,7.58
2023-04-15T20:02:30.200Z,7.52
2023-04-15T20:04:56.937Z,7.50
2023-04-15T20:07:23.566Z,7.53
2023-04-15T20:09:51.966Z,7.55
2023-04-15T20:12:50.326Z,7.55
2023-04-15T20:15:06.558Z,7.58
2023-04-15T20:17:34.045Z,7.51
2023-04-15T20:20:00.704Z,7.44
2023-04-15T20:22:27.342Z,7.37
2023-04-15T20:24:54.038Z,7.28
2023-04-15T20:27:21.227Z,7.29
2023-04-15T20:29:48.996Z,7.23
2023-04-15T20:32:15.599Z,7.25
2023-04-15T20:34:42.211Z,7.25
2023-04-15T20:37:10.795Z,7.26
2023-04-15T20:39:37.461Z,7.27
2023-04-15T20:42:04.284Z,7.27
2023-04-15T20:44:31.088Z,7.27
2023-04-15T20:46:57.723Z,7.26
2023-04-15T20:49:24.413Z,7.19
2023-04-15T20:51:51.288Z,7.19
2023-04-15T20:54:19.543Z,7.05
2023-04-15T20:56:46.249Z,7.02
2023-04-15T20:59:12.874Z,6.99
2023-04-15T21:01:40.504Z,7.00
2023-04-15T21:04:07.154Z,6.93
2023-04-15T21:06:34.920Z,6.99
2023-04-15T21:09:01.532Z,7.05
2023-04-15T21:11:46.167Z,7.09
2023-04-15T21:14:16.025Z,7.09
2023-04-15T21:16:43.213Z,7.14
2023-04-15T21:19:10.402Z,7.01
2023-04-15T21:21:37.179Z,6.95
2023-04-15T21:24:04.046Z,6.99
2023-04-15T21:26:30.655Z,6.99
2023-04-15T21:28:57.266Z,7.01
2023-04-15T21:31:23.959Z,7.05
2023-04-15T21:33:50.782Z,7.01
2023-04-15T21:36:17.399Z,7.02
2023-04-15T21:38:44.032Z,6.92
2023-04-15T21:41:11.106Z,6.85
2023-04-15T21:43:37.916Z,6.90
2023-04-15T21:46:24.232Z,6.95
2023-04-15T21:48:53.173Z,6.91
2023-04-15T21:51:19.891Z,6.91
2023-04-15T21:53:46.641Z,6.89
2023-04-15T21:56:13.330Z,6.78
2023-04-15T21:58:41.114Z,6.71
2023-04-15T22:01:07.987Z,6.61
2023-04-15T22:03:35.713Z,6.58
2023-04-15T22:06:03.859Z,6.63
2023-04-15T22:11:30.604Z,6.53
2023-04-15T22:14:31.804Z,6.51
2023-04-15T22:16:58.472Z,6.48
2023-04-15T22:19:26.050Z,6.50
2023-04-15T22:21:52.674Z,6.50
2023-04-15T22:24:38.547Z,6.41
2023-04-15T22:27:06.164Z,6.39
2023-04-15T22:29:32.770Z,6.40
2023-04-15T22:31:59.420Z,6.42
2023-04-15T22:34:26.177Z,6.36
2023-04-15T22:36:52.819Z,6.31
2023-04-15T22:39:19.956Z,6.34
2023-04-15T22:41:47.513Z,6.31
2023-04-15T22:44:14.141Z,6.31
2023-04-15T22:46:40.847Z,6.20
2023-04-15T22:49:09.551Z,6.19
2023-04-15T22:51:36.815Z,6.15
2023-04-15T22:54:03.560Z,6.11
2023-04-15T22:56:30.217Z,6.07
2023-04-15T22:58:56.849Z,6.03
2023-04-15T23:01:23.484Z,6.00
2023-04-15T23:03:59.885Z,5.93
2023-04-15T23:06:34.510Z,5.91
2023-04-15T23:09:01.184Z,5.88
2023-04-15T23:11:27.828Z,5.88
2023-04-15T23:13:57.811Z,5.93
2023-04-15T23:16:24.606Z,5.91
2023-04-15T23:18:51.338Z,5.93
2023-04-15T23:21:20.522Z,5.87
2023-04-15T23:23:48.388Z,5.86
2023-04-15T23:26:15.009Z,5.87
2023-04-15T23:28:41.683Z,5.83
2023-04-15T23:31:08.354Z,5.84
2023-04-15T23:33:44.932Z,5.80
2023-04-15T23:36:11.600Z,5.78
2023-04-15T23:38:38.287Z,5.77
2023-04-15T23:41:04.982Z,5.77
2023-04-15T23:43:31.708Z,5.81
2023-04-15T23:45:58.403Z,5.82
2023-04-15T23:48:25.171Z,5.92
2023-04-15T23:50:51.896Z,5.95
2023-04-15T23:53:18.558Z,5.91
2023-04-15T23:55:45.396Z,5.90
2023-04-15T23:58:12.274Z,5.94
